sensor_id;sensor_type;location;lat;lon;timestamp;pressure;altitude;pressure_sealevel;temperature;humidity
9774;BME280;4926;42.670;23.316;2023-02-01T00:01:36;94624.00;;;1.68;93.52
9774;BME280;4926;42.670;23.316;2023-02-01T00:04:05;94630.75;;;1.76;93.79
9774;BME280;4926;42.670;23.316;2023-02-01T00:06:32;94627.41;;;1.80;92.71
9774;BME280;4926;42.670;23.316;2023-02-01T00:08:58;94639.50;;;1.70;91.97
9774;BME280;4926;42.670;23.316;2023-02-01T00:11:31;94635.66;;;1.72;92.40
9774;BME280;4926;42.670;23.316;2023-02-01T00:13:58;94634.97;;;1.65;91.42
9774;BME280;4926;42.670;23.316;2023-02-01T00:16:27;94624.13;;;1.62;90.84
9774;BME280;4926;42.670;23.316;2023-02-01T00:18:57;94630.63;;;1.71;91.32
9774;BME280;4926;42.670;23.316;2023-02-01T00:21:24;94636.47;;;1.73;91.14
9774;BME280;4926;42.670;23.316;2023-02-01T00:23:51;94628.69;;;1.78;90.43
9774;BME280;4926;42.670;23.316;2023-02-01T00:26:23;94627.78;;;1.72;90.88
9774;BME280;4926;42.670;23.316;2023-02-01T00:29:14;94629.94;;;1.75;90.72
9774;BME280;4926;42.670;23.316;2023-02-01T00:31:41;94629.84;;;1.82;90.13
9774;BME280;4926;42.670;23.316;2023-02-01T00:34:09;94624.59;;;1.82;88.96
9774;BME280;4926;42.670;23.316;2023-02-01T00:36:37;94628.22;;;1.81;88.11
9774;BME280;4926;42.670;23.316;2023-02-01T00:39:04;94626.97;;;1.72;86.76
9774;BME280;4926;42.670;23.316;2023-02-01T00:41:31;94626.97;;;1.72;86.88
9774;BME280;4926;42.670;23.316;2023-02-01T00:43:57;94617.31;;;1.61;86.92
9774;BME280;4926;42.670;23.316;2023-02-01T00:46:28;94623.91;;;1.63;86.75
9774;BME280;4926;42.670;23.316;2023-02-01T00:48:55;94612.25;;;1.59;86.00
9774;BME280;4926;42.670;23.316;2023-02-01T00:51:23;94618.78;;;1.57;85.22
9774;BME280;4926;42.670;23.316;2023-02-01T00:53:50;94619.13;;;1.60;84.90
9774;BME280;4926;42.670;23.316;2023-02-01T00:56:17;94618.56;;;1.58;84.37
9774;BME280;4926;42.670;23.316;2023-02-01T00:58:44;94611.72;;;1.57;84.58
9774;BME280;4926;42.670;23.316;2023-02-01T01:01:12;94612.41;;;1.53;84.55
9774;BME280;4926;42.670;23.316;2023-02-01T01:03:45;94611.63;;;1.52;83.63
9774;BME280;4926;42.670;23.316;2023-02-01T01:06:14;94611.38;;;1.54;83.80
9774;BME280;4926;42.670;23.316;2023-02-01T01:08:41;94605.91;;;1.55;83.22
9774;BME280;4926;42.670;23.316;2023-02-01T01:11:10;94617.06;;;1.62;83.29
9774;BME280;4926;42.670;23.316;2023-02-01T01:13:37;94591.09;;;1.61;82.87
9774;BME280;4926;42.670;23.316;2023-02-01T01:16:05;94609.06;;;1.69;82.32
9774;BME280;4926;42.670;23.316;2023-02-01T01:18:33;94610.66;;;1.70;82.56
9774;BME280;4926;42.670;23.316;2023-02-01T01:21:04;94607.69;;;1.66;81.66
9774;BME280;4926;42.670;23.316;2023-02-01T01:23:31;94600.97;;;1.70;81.40
9774;BME280;4926;42.670;23.316;2023-02-01T01:25:58;94599.25;;;1.76;81.06
9774;BME280;4926;42.670;23.316;2023-02-01T01:28:25;94592.44;;;1.75;80.37
9774;BME280;4926;42.670;23.316;2023-02-01T01:30:59;94597.66;;;1.75;79.48
9774;BME280;4926;42.670;23.316;2023-02-01T01:33:27;94591.75;;;1.68;79.48
9774;BME280;4926;42.670;23.316;2023-02-01T01:35:54;94606.56;;;1.74;78.55
9774;BME280;4926;42.670;23.316;2023-02-01T01:38:22;94611.56;;;1.75;78.24
9774;BME280;4926;42.670;23.316;2023-02-01T01:40:50;94617.63;;;1.76;78.06
9774;BME280;4926;42.670;23.316;2023-02-01T01:43:19;94616.03;;;1.75;77.40
9774;BME280;4926;42.670;23.316;2023-02-01T01:45:48;94618.31;;;1.71;77.81
9774;BME280;4926;42.670;23.316;2023-02-01T01:48:18;94618.44;;;1.65;77.63
9774;BME280;4926;42.670;23.316;2023-02-01T01:50:58;94617.84;;;1.63;77.56
9774;BME280;4926;42.670;23.316;2023-02-01T01:53:32;94617.31;;;1.61;77.71
9774;BME280;4926;42.670;23.316;2023-02-01T01:56:03;94618.78;;;1.57;77.28
9774;BME280;4926;42.670;23.316;2023-02-01T01:58:32;94614.44;;;1.51;77.54
9774;BME280;4926;42.670;23.316;2023-02-01T02:00:59;94625.97;;;1.50;78.09
9774;BME280;4926;42.670;23.316;2023-02-01T02:03:31;94612.06;;;1.38;77.54
9774;BME280;4926;42.670;23.316;2023-02-01T02:06:04;94612.88;;;1.38;78.00
9774;BME280;4926;42.670;23.316;2023-02-01T02:08:35;94609.78;;;1.30;78.26
9774;BME280;4926;42.670;23.316;2023-02-01T02:11:03;94614.59;;;1.33;78.60
9774;BME280;4926;42.670;23.316;2023-02-01T02:13:33;94620.16;;;1.25;78.82
9774;BME280;4926;42.670;23.316;2023-02-01T02:16:21;94618.22;;;1.20;78.79
9774;BME280;4926;42.670;23.316;2023-02-01T02:18:58;94616.72;;;1.12;78.78
9774;BME280;4926;42.670;23.316;2023-02-01T02:21:50;94607.72;;;1.08;78.90
9774;BME280;4926;42.670;23.316;2023-02-01T02:24:44;94606.81;;;1.14;78.69
9774;BME280;4926;42.670;23.316;2023-02-01T02:27:23;94607.28;;;1.11;78.71
9774;BME280;4926;42.670;23.316;2023-02-01T02:30:16;94612.97;;;1.08;78.82
9774;BME280;4926;42.670;23.316;2023-02-01T02:35:48;94613.88;;;1.02;79.19
9774;BME280;4926;42.670;23.316;2023-02-01T02:38:25;94605.78;;;1.04;78.78
9774;BME280;4926;42.670;23.316;2023-02-01T02:41:04;94612.31;;;1.01;78.70
9774;BME280;4926;42.670;23.316;2023-02-01T02:43:37;94613.31;;;1.00;79.10
9774;BME280;4926;42.670;23.316;2023-02-01T02:46:33;94610.69;;;1.00;79.38
9774;BME280;4926;42.670;23.316;2023-02-01T02:49:22;94599.50;;;1.05;78.73
9774;BME280;4926;42.670;23.316;2023-02-01T02:51:55;94603.06;;;0.99;79.30
9774;BME280;4926;42.670;23.316;2023-02-01T02:54:46;94611.72;;;0.99;79.11
9774;BME280;4926;42.670;23.316;2023-02-01T02:57:18;94613.88;;;1.02;78.92
9774;BME280;4926;42.670;23.316;2023-02-01T03:00:06;94604.28;;;0.96;79.19
9774;BME280;4926;42.670;23.316;2023-02-01T03:02:54;94605.56;;;1.05;78.55
9774;BME280;4926;42.670;23.316;2023-02-01T03:05:41;94611.84;;;1.04;77.59
9774;BME280;4926;42.670;23.316;2023-02-01T03:08:13;94607.28;;;1.11;77.47
9774;BME280;4926;42.670;23.316;2023-02-01T03:10:47;94604.56;;;1.06;77.00
9774;BME280;4926;42.670;23.316;2023-02-01T03:13:36;94630.53;;;1.20;76.51
9774;BME280;4926;42.670;23.316;2023-02-01T03:16:10;94622.09;;;1.17;76.28
9774;BME280;4926;42.670;23.316;2023-02-01T03:18:45;94612.53;;;1.11;75.96
9774;BME280;4926;42.670;23.316;2023-02-01T03:21:18;94631.00;;;1.17;75.95
9774;BME280;4926;42.670;23.316;2023-02-01T03:23:51;94625.50;;;1.18;75.89
9774;BME280;4926;42.670;23.316;2023-02-01T03:26:21;94627.91;;;1.20;76.34
9774;BME280;4926;42.670;23.316;2023-02-01T03:28:57;94648.75;;;1.14;75.87
9774;BME280;4926;42.670;23.316;2023-02-01T03:31:27;94633.38;;;1.18;76.12
9774;BME280;4926;42.670;23.316;2023-02-01T03:34:00;94634.19;;;1.19;76.45
9774;BME280;4926;42.670;23.316;2023-02-01T03:36:32;94636.22;;;1.17;76.17
9774;BME280;4926;42.670;23.316;2023-02-01T03:39:11;94628.94;;;1.19;76.22
9774;BME280;4926;42.670;23.316;2023-02-01T03:41:43;94629.19;;;1.17;76.62
9774;BME280;4926;42.670;23.316;2023-02-01T03:44:15;94620.03;;;1.20;76.30
9774;BME280;4926;42.670;23.316;2023-02-01T03:46:47;94631.09;;;1.22;76.66
9774;BME280;4926;42.670;23.316;2023-02-01T03:49:20;94620.25;;;1.30;76.60
9774;BME280;4926;42.670;23.316;2023-02-01T03:51:50;94626.66;;;1.34;75.94
9774;BME280;4926;42.670;23.316;2023-02-01T03:54:19;94631.22;;;1.27;76.09
9774;BME280;4926;42.670;23.316;2023-02-01T03:56:47;94608.56;;;1.21;75.84
9774;BME280;4926;42.670;23.316;2023-02-01T03:59:14;94633.53;;;1.35;75.72
9774;BME280;4926;42.670;23.316;2023-02-01T04:01:41;94624.63;;;1.36;76.11
9774;BME280;4926;42.670;23.316;2023-02-01T04:04:08;94627.22;;;1.36;75.97
9774;BME280;4926;42.670;23.316;2023-02-01T04:06:37;94637.16;;;1.34;75.94
9774;BME280;4926;42.670;23.316;2023-02-01T04:09:10;94633.94;;;1.32;76.43
9774;BME280;4926;42.670;23.316;2023-02-01T04:11:38;94631.91;;;1.34;76.30
9774;BME280;4926;42.670;23.316;2023-02-01T04:14:10;94610.13;;;1.33;76.75
9774;BME280;4926;42.670;23.316;2023-02-01T04:16:37;94631.91;;;1.45;76.78
9774;BME280;4926;42.670;23.316;2023-02-01T04:19:03;94636.94;;;1.47;76.69
9774;BME280;4926;42.670;23.316;2023-02-01T04:21:30;94635.09;;;1.47;77.07
9774;BME280;4926;42.670;23.316;2023-02-01T04:23:57;94649.94;;;1.42;78.06
9774;BME280;4926;42.670;23.316;2023-02-01T04:26:24;94633.63;;;1.40;77.95
9774;BME280;4926;42.670;23.316;2023-02-01T04:28:52;94646.28;;;1.43;78.03
9774;BME280;4926;42.670;23.316;2023-02-01T04:31:19;94646.63;;;1.46;78.62
9774;BME280;4926;42.670;23.316;2023-02-01T04:33:51;94646.16;;;1.49;78.43
9774;BME280;4926;42.670;23.316;2023-02-01T04:36:18;94647.88;;;1.55;78.87
9774;BME280;4926;42.670;23.316;2023-02-01T04:38:47;94636.81;;;1.53;79.24
9774;BME280;4926;42.670;23.316;2023-02-01T04:41:16;94640.34;;;1.59;78.96
9774;BME280;4926;42.670;23.316;2023-02-01T04:43:44;94643.75;;;1.59;79.70
9774;BME280;4926;42.670;23.316;2023-02-01T04:46:15;94641.94;;;1.60;80.18
9774;BME280;4926;42.670;23.316;2023-02-01T04:48:42;94653.69;;;1.57;79.91
9774;BME280;4926;42.670;23.316;2023-02-01T04:51:09;94659.28;;;1.61;80.20
9774;BME280;4926;42.670;23.316;2023-02-01T04:53:40;94649.56;;;1.61;80.69
9774;BME280;4926;42.670;23.316;2023-02-01T04:56:07;94655.03;;;1.60;80.26
9774;BME280;4926;42.670;23.316;2023-02-01T04:58:34;94659.63;;;1.64;80.68
9774;BME280;4926;42.670;23.316;2023-02-01T05:01:02;94659.97;;;1.68;81.28
9774;BME280;4926;42.670;23.316;2023-02-01T05:03:31;94652.53;;;1.65;81.33
9774;BME280;4926;42.670;23.316;2023-02-01T05:05:58;94667.00;;;1.56;81.83
9774;BME280;4926;42.670;23.316;2023-02-01T05:08:28;94676.03;;;1.60;82.28
9774;BME280;4926;42.670;23.316;2023-02-01T05:11:01;94661.78;;;1.56;82.20
9774;BME280;4926;42.670;23.316;2023-02-01T05:13:29;94663.25;;;1.63;82.51
9774;BME280;4926;42.670;23.316;2023-02-01T05:16:13;94696.69;;;1.68;82.41
9774;BME280;4926;42.670;23.316;2023-02-01T05:18:44;94683.91;;;1.60;82.37
9774;BME280;4926;42.670;23.316;2023-02-01T05:21:10;94672.94;;;1.63;82.75
9774;BME280;4926;42.670;23.316;2023-02-01T05:23:37;94668.38;;;1.70;82.84
9774;BME280;4926;42.670;23.316;2023-02-01T05:26:18;94672.25;;;1.79;82.47
9774;BME280;4926;42.670;23.316;2023-02-01T05:28:47;94672.34;;;1.84;82.93
9774;BME280;4926;42.670;23.316;2023-02-01T05:31:14;94667.81;;;1.79;82.42
9774;BME280;4926;42.670;23.316;2023-02-01T05:33:42;94672.59;;;1.82;82.52
9774;BME280;4926;42.670;23.316;2023-02-01T05:36:09;94681.03;;;1.84;82.46
9774;BME280;4926;42.670;23.316;2023-02-01T05:38:36;94678.19;;;1.86;82.54
9774;BME280;4926;42.670;23.316;2023-02-01T05:41:03;94671.56;;;1.95;82.56
9774;BME280;4926;42.670;23.316;2023-02-01T05:43:30;94675.78;;;1.96;82.07
9774;BME280;4926;42.670;23.316;2023-02-01T05:45:56;94670.06;;;1.99;81.54
9774;BME280;4926;42.670;23.316;2023-02-01T05:48:23;94670.97;;;1.93;81.30
9774;BME280;4926;42.670;23.316;2023-02-01T05:50:51;94663.09;;;1.93;81.30
9774;BME280;4926;42.670;23.316;2023-02-01T05:53:18;94664.25;;;1.97;81.26
9774;BME280;4926;42.670;23.316;2023-02-01T05:55:49;94652.28;;;2.01;81.03
9774;BME280;4926;42.670;23.316;2023-02-01T05:58:16;94651.69;;;1.99;80.18
9774;BME280;4926;42.670;23.316;2023-02-01T06:00:43;94673.03;;;2.02;80.75
9774;BME280;4926;42.670;23.316;2023-02-01T06:03:12;94681.34;;;2.11;80.40
9774;BME280;4926;42.670;23.316;2023-02-01T06:05:39;94666.25;;;2.18;79.54
9774;BME280;4926;42.670;23.316;2023-02-01T06:08:13;94667.84;;;2.19;79.95
9774;BME280;4926;42.670;23.316;2023-02-01T06:10:42;94675.06;;;2.23;78.82
9774;BME280;4926;42.670;23.316;2023-02-01T06:13:09;94667.84;;;2.19;79.19
9774;BME280;4926;42.670;23.316;2023-02-01T06:15:36;94678.94;;;2.21;78.63
9774;BME280;4926;42.670;23.316;2023-02-01T06:18:03;94673.78;;;2.26;79.26
9774;BME280;4926;42.670;23.316;2023-02-01T06:20:32;94678.69;;;2.34;78.50
9774;BME280;4926;42.670;23.316;2023-02-01T06:22:59;94680.03;;;2.37;78.35
9774;BME280;4926;42.670;23.316;2023-02-01T06:25:27;94686.56;;;2.34;78.25
9774;BME280;4926;42.670;23.316;2023-02-01T06:27:54;94682.41;;;2.38;77.52
9774;BME280;4926;42.670;23.316;2023-02-01T06:30:20;94678.78;;;2.39;77.56
9774;BME280;4926;42.670;23.316;2023-02-01T06:32:50;94685.59;;;2.40;77.40
9774;BME280;4926;42.670;23.316;2023-02-01T06:35:21;94680.94;;;2.42;77.02
9774;BME280;4926;42.670;23.316;2023-02-01T06:37:47;94681.25;;;2.57;76.76
9774;BME280;4926;42.670;23.316;2023-02-01T06:40:17;94687.59;;;2.61;76.89
9774;BME280;4926;42.670;23.316;2023-02-01T06:42:45;94688.06;;;2.58;76.80
9774;BME280;4926;42.670;23.316;2023-02-01T06:45:16;94691.28;;;2.60;76.07
9774;BME280;4926;42.670;23.316;2023-02-01T06:47:46;94691.28;;;2.60;76.46
9774;BME280;4926;42.670;23.316;2023-02-01T06:50:15;94698.19;;;2.66;75.65
9774;BME280;4926;42.670;23.316;2023-02-01T06:52:42;94697.19;;;2.67;75.86
9774;BME280;4926;42.670;23.316;2023-02-01T06:55:09;94706.97;;;2.72;75.69
9774;BME280;4926;42.670;23.316;2023-02-01T06:57:35;94713.03;;;2.72;75.31
9774;BME280;4926;42.670;23.316;2023-02-01T07:00:15;94715.09;;;2.70;75.46
9774;BME280;4926;42.670;23.316;2023-02-01T07:02:45;94697.88;;;2.63;75.42
9774;BME280;4926;42.670;23.316;2023-02-01T07:05:11;94711.91;;;2.68;75.15
9774;BME280;4926;42.670;23.316;2023-02-01T07:07:43;94727.31;;;2.76;74.83
9774;BME280;4926;42.670;23.316;2023-02-01T07:10:10;94719.31;;;2.71;74.43
9774;BME280;4926;42.670;23.316;2023-02-01T07:12:37;94725.47;;;2.77;74.63
9774;BME280;4926;42.670;23.316;2023-02-01T07:15:05;94726.84;;;2.79;74.67
9774;BME280;4926;42.670;23.316;2023-02-01T07:17:36;94724.63;;;2.88;74.11
9774;BME280;4926;42.670;23.316;2023-02-01T07:20:04;94735.81;;;2.95;74.05
9774;BME280;4926;42.670;23.316;2023-02-01T07:22:31;94733.66;;;2.92;73.82
9774;BME280;4926;42.670;23.316;2023-02-01T07:24:59;94733.56;;;2.87;73.99
9774;BME280;4926;42.670;23.316;2023-02-01T07:27:25;94738.50;;;2.83;73.70
9774;BME280;4926;42.670;23.316;2023-02-01T07:29:52;94747.16;;;2.84;73.68
9774;BME280;4926;42.670;23.316;2023-02-01T07:32:20;94734.81;;;2.84;73.62
9774;BME280;4926;42.670;23.316;2023-02-01T07:34:48;94732.56;;;2.76;74.37
9774;BME280;4926;42.670;23.316;2023-02-01T07:37:15;94753.97;;;2.96;73.81
9774;BME280;4926;42.670;23.316;2023-02-01T07:39:42;94742.66;;;2.96;73.27
9774;BME280;4926;42.670;23.316;2023-02-01T07:42:08;94746.81;;;2.92;72.93
9774;BME280;4926;42.670;23.316;2023-02-01T07:44:35;94754.34;;;2.88;73.11
9774;BME280;4926;42.670;23.316;2023-02-01T07:47:02;94751.25;;;2.91;73.64
9774;BME280;4926;42.670;23.316;2023-02-01T07:49:29;94758.56;;;2.89;73.56
9774;BME280;4926;42.670;23.316;2023-02-01T07:51:57;94752.97;;;2.97;73.39
9774;BME280;4926;42.670;23.316;2023-02-01T07:54:23;94749.00;;;2.83;72.84
9774;BME280;4926;42.670;23.316;2023-02-01T07:56:50;94761.38;;;2.99;72.69
9774;BME280;4926;42.670;23.316;2023-02-01T07:59:17;94763.56;;;3.02;73.04
9774;BME280;4926;42.670;23.316;2023-02-01T08:01:46;94767.38;;;3.11;72.22
9774;BME280;4926;42.670;23.316;2023-02-01T08:04:12;94765.25;;;3.08;72.09
9774;BME280;4926;42.670;23.316;2023-02-01T08:06:42;94768.19;;;3.12;72.42
9774;BME280;4926;42.670;23.316;2023-02-01T08:09:11;94773.88;;;3.20;71.89
9774;BME280;4926;42.670;23.316;2023-02-01T08:11:38;94772.66;;;3.11;71.34
9774;BME280;4926;42.670;23.316;2023-02-01T08:14:05;94762.59;;;3.08;71.57
9774;BME280;4926;42.670;23.316;2023-02-01T08:16:32;94775.06;;;3.13;71.05
9774;BME280;4926;42.670;23.316;2023-02-01T08:19:03;94757.84;;;3.22;71.40
9774;BME280;4926;42.670;23.316;2023-02-01T08:21:29;94757.06;;;3.21;71.11
9774;BME280;4926;42.670;23.316;2023-02-01T08:24:03;94756.44;;;3.31;70.78
9774;BME280;4926;42.670;23.316;2023-02-01T08:26:32;94753.19;;;3.40;71.07
9774;BME280;4926;42.670;23.316;2023-02-01T08:29:01;94761.25;;;3.51;70.36
9774;BME280;4926;42.670;23.316;2023-02-01T08:31:29;94765.59;;;3.57;70.12
9774;BME280;4926;42.670;23.316;2023-02-01T08:33:58;94763.03;;;3.62;69.70
9774;BME280;4926;42.670;23.316;2023-02-01T08:36:29;94753.59;;;3.66;69.67
9774;BME280;4926;42.670;23.316;2023-02-01T08:38:56;94756.16;;;3.77;69.54
9774;BME280;4926;42.670;23.316;2023-02-01T08:41:25;94753.28;;;3.79;68.35
9774;BME280;4926;42.670;23.316;2023-02-01T08:43:54;94742.69;;;3.74;68.79
9774;BME280;4926;42.670;23.316;2023-02-01T08:46:21;94754.63;;;3.98;68.42
9774;BME280;4926;42.670;23.316;2023-02-01T08:48:49;94751.06;;;4.04;67.49
9774;BME280;4926;42.670;23.316;2023-02-01T08:51:17;94735.56;;;3.91;67.29
9774;BME280;4926;42.670;23.316;2023-02-01T08:53:47;94739.25;;;3.90;67.13
9774;BME280;4926;42.670;23.316;2023-02-01T08:56:19;94733.81;;;3.96;66.78
9774;BME280;4926;42.670;23.316;2023-02-01T08:58:47;94736.84;;;4.05;66.50
9774;BME280;4926;42.670;23.316;2023-02-01T09:01:22;94728.34;;;4.19;66.55
9774;BME280;4926;42.670;23.316;2023-02-01T09:03:49;94730.53;;;4.44;65.58
9774;BME280;4926;42.670;23.316;2023-02-01T09:06:18;94716.69;;;4.32;65.06
9774;BME280;4926;42.670;23.316;2023-02-01T09:08:45;94740.44;;;4.37;65.39
9774;BME280;4926;42.670;23.316;2023-02-01T09:11:13;94744.59;;;4.33;65.73
9774;BME280;4926;42.670;23.316;2023-02-01T09:13:47;94744.47;;;4.23;65.89
9774;BME280;4926;42.670;23.316;2023-02-01T09:16:14;94756.09;;;4.43;65.04
9774;BME280;4926;42.670;23.316;2023-02-01T09:18:42;94745.66;;;4.53;64.65
9774;BME280;4926;42.670;23.316;2023-02-01T09:21:09;94753.47;;;4.65;64.84
9774;BME280;4926;42.670;23.316;2023-02-01T09:23:35;94736.53;;;4.61;63.83
9774;BME280;4926;42.670;23.316;2023-02-01T09:26:04;94747.19;;;4.71;63.97
9774;BME280;4926;42.670;23.316;2023-02-01T09:28:31;94746.69;;;4.74;63.91
9774;BME280;4926;42.670;23.316;2023-02-01T09:30:58;94741.94;;;4.71;64.20
9774;BME280;4926;42.670;23.316;2023-02-01T09:33:26;94736.75;;;4.81;64.56
9774;BME280;4926;42.670;23.316;2023-02-01T09:35:56;94733.31;;;5.02;63.91
9774;BME280;4926;42.670;23.316;2023-02-01T09:38:23;94718.59;;;5.33;62.68
9774;BME280;4926;42.670;23.316;2023-02-01T09:40:53;94715.41;;;5.31;62.17
9774;BME280;4926;42.670;23.316;2023-02-01T09:43:29;94723.28;;;5.26;62.37
9774;BME280;4926;42.670;23.316;2023-02-01T09:46:16;94709.66;;;5.07;61.89
9774;BME280;4926;42.670;23.316;2023-02-01T09:48:45;94710.50;;;5.18;61.77
9774;BME280;4926;42.670;23.316;2023-02-01T09:51:18;94706.19;;;5.33;61.79
9774;BME280;4926;42.670;23.316;2023-02-01T09:53:59;94684.63;;;5.41;60.68
9774;BME280;4926;42.670;23.316;2023-02-01T09:56:33;94685.34;;;5.68;60.30
9774;BME280;4926;42.670;23.316;2023-02-01T09:59:09;94677.41;;;5.63;59.23
9774;BME280;4926;42.670;23.316;2023-02-01T10:01:37;94665.75;;;5.59;59.25
9774;BME280;4926;42.670;23.316;2023-02-01T10:04:06;94668.41;;;5.59;59.72
9774;BME280;4926;42.670;23.316;2023-02-01T10:06:47;94684.25;;;5.59;59.58
9774;BME280;4926;42.670;23.316;2023-02-01T10:09:24;94679.03;;;5.69;58.78
9774;BME280;4926;42.670;23.316;2023-02-01T10:12:18;94676.47;;;5.80;59.11
9774;BME280;4926;42.670;23.316;2023-02-01T10:15:02;94662.28;;;5.86;58.39
9774;BME280;4926;42.670;23.316;2023-02-01T10:17:48;94661.53;;;5.95;58.16
9774;BME280;4926;42.670;23.316;2023-02-01T10:20:23;94654.66;;;5.89;58.17
9774;BME280;4926;42.670;23.316;2023-02-01T10:23:01;94642.47;;;5.88;57.85
9774;BME280;4926;42.670;23.316;2023-02-01T10:25:36;94643.00;;;5.90;57.37
9774;BME280;4926;42.670;23.316;2023-02-01T10:28:03;94645.56;;;5.80;57.94
9774;BME280;4926;42.670;23.316;2023-02-01T10:30:37;94647.41;;;5.80;58.30
9774;BME280;4926;42.670;23.316;2023-02-01T10:33:14;94638.16;;;5.77;58.28
9774;BME280;4926;42.670;23.316;2023-02-01T10:35:44;94639.00;;;5.83;58.24
9774;BME280;4926;42.670;23.316;2023-02-01T10:38:18;94642.72;;;5.87;58.07
9774;BME280;4926;42.670;23.316;2023-02-01T10:40:49;94633.22;;;5.86;58.13
9774;BME280;4926;42.670;23.316;2023-02-01T10:43:17;94630.84;;;5.84;57.12
9774;BME280;4926;42.670;23.316;2023-02-01T10:45:44;94622.34;;;5.82;57.96
9774;BME280;4926;42.670;23.316;2023-02-01T10:48:11;94619.25;;;5.95;57.99
9774;BME280;4926;42.670;23.316;2023-02-01T10:50:42;94631.75;;;6.05;56.92
9774;BME280;4926;42.670;23.316;2023-02-01T10:53:14;94620.91;;;6.01;57.02
9774;BME280;4926;42.670;23.316;2023-02-01T10:55:47;94604.72;;;5.88;56.73
9774;BME280;4926;42.670;23.316;2023-02-01T10:58:20;94617.25;;;5.76;57.27
9774;BME280;4926;42.670;23.316;2023-02-01T11:00:51;94618.41;;;5.85;57.31
9774;BME280;4926;42.670;23.316;2023-02-01T11:03:22;94621.06;;;5.85;57.13
9774;BME280;4926;42.670;23.316;2023-02-01T11:05:55;94619.50;;;5.89;56.93
9774;BME280;4926;42.670;23.316;2023-02-01T11:08:24;94624.25;;;5.92;56.44
9774;BME280;4926;42.670;23.316;2023-02-01T11:10:57;94616.44;;;6.07;56.32
9774;BME280;4926;42.670;23.316;2023-02-01T11:13:29;94620.13;;;6.11;56.44
9774;BME280;4926;42.670;23.316;2023-02-01T11:16:02;94614.53;;;6.02;55.79
9774;BME280;4926;42.670;23.316;2023-02-01T11:18:36;94601.84;;;5.99;56.55
9774;BME280;4926;42.670;23.316;2023-02-01T11:21:06;94602.13;;;5.98;56.34
9774;BME280;4926;42.670;23.316;2023-02-01T11:23:40;94608.09;;;5.83;56.90
9774;BME280;4926;42.670;23.316;2023-02-01T11:26:11;94614.22;;;5.89;57.60
9774;BME280;4926;42.670;23.316;2023-02-01T11:28:44;94604.72;;;5.88;57.19
9774;BME280;4926;42.670;23.316;2023-02-01T11:31:14;94593.53;;;5.81;57.01
9774;BME280;4926;42.670;23.316;2023-02-01T11:33:46;94595.72;;;5.89;57.06
9774;BME280;4926;42.670;23.316;2023-02-01T11:36:16;94584.91;;;5.90;57.04
9774;BME280;4926;42.670;23.316;2023-02-01T11:38:52;94605.00;;;5.91;56.99
9774;BME280;4926;42.670;23.316;2023-02-01T11:41:22;94590.84;;;5.76;57.23
9774;BME280;4926;42.670;23.316;2023-02-01T11:43:52;94599.88;;;5.80;56.83
9774;BME280;4926;42.670;23.316;2023-02-01T11:46:23;94587.19;;;5.77;56.58
9774;BME280;4926;42.670;23.316;2023-02-01T11:48:55;94587.19;;;5.77;56.09
9774;BME280;4926;42.670;23.316;2023-02-01T11:51:45;94596.69;;;5.78;56.63
9774;BME280;4926;42.670;23.316;2023-02-01T11:54:40;94574.25;;;5.80;56.50
9774;BME280;4926;42.670;23.316;2023-02-01T11:57:20;94587.19;;;5.77;56.56
9774;BME280;4926;42.670;23.316;2023-02-01T12:00:10;94577.78;;;5.91;56.51
9774;BME280;4926;42.670;23.316;2023-02-01T12:03:13;94576.09;;;5.80;56.29
9774;BME280;4926;42.670;23.316;2023-02-01T12:05:50;94565.25;;;5.76;56.25
9774;BME280;4926;42.670;23.316;2023-02-01T12:08:48;94561.03;;;5.75;56.78
9774;BME280;4926;42.670;23.316;2023-02-01T12:11:33;94573.19;;;5.81;56.80
9774;BME280;4926;42.670;23.316;2023-02-01T12:14:11;94584.88;;;5.85;57.26
9774;BME280;4926;42.670;23.316;2023-02-01T12:16:50;94564.53;;;5.86;57.00
9774;BME280;4926;42.670;23.316;2023-02-01T12:19:30;94574.00;;;5.82;57.21
9774;BME280;4926;42.670;23.316;2023-02-01T12:22:12;94565.84;;;5.83;57.21
9774;BME280;4926;42.670;23.316;2023-02-01T12:25:05;94565.13;;;5.93;57.24
9774;BME280;4926;42.670;23.316;2023-02-01T12:28:07;94575.19;;;6.06;57.12
9774;BME280;4926;42.670;23.316;2023-02-01T12:30:53;94569.34;;;5.99;56.99
9774;BME280;4926;42.670;23.316;2023-02-01T12:33:33;94562.75;;;5.96;57.04
9774;BME280;4926;42.670;23.316;2023-02-01T12:36:14;94560.31;;;5.90;57.48
9774;BME280;4926;42.670;23.316;2023-02-01T12:38:49;94573.25;;;5.86;57.79
9774;BME280;4926;42.670;23.316;2023-02-01T12:41:27;94570.94;;;6.00;57.17
9774;BME280;4926;42.670;23.316;2023-02-01T12:44:03;94576.81;;;6.07;56.92
9774;BME280;4926;42.670;23.316;2023-02-01T12:46:35;94568.38;;;6.15;57.19
9774;BME280;4926;42.670;23.316;2023-02-01T12:49:10;94561.00;;;6.22;56.76
9774;BME280;4926;42.670;23.316;2023-02-01T12:51:41;94552.53;;;6.20;56.53
9774;BME280;4926;42.670;23.316;2023-02-01T12:54:13;94568.44;;;6.35;56.78
9774;BME280;4926;42.670;23.316;2023-02-01T12:56:46;94561.56;;;6.39;56.57
9774;BME280;4926;42.670;23.316;2023-02-01T12:59:20;94551.25;;;6.42;55.36
9774;BME280;4926;42.670;23.316;2023-02-01T13:01:54;94558.38;;;6.37;55.51
9774;BME280;4926;42.670;23.316;2023-02-01T13:04:29;94559.97;;;6.33;55.28
9774;BME280;4926;42.670;23.316;2023-02-01T13:07:04;94544.63;;;6.30;54.66
9774;BME280;4926;42.670;23.316;2023-02-01T13:09:39;94541.19;;;6.29;54.57
9774;BME280;4926;42.670;23.316;2023-02-01T13:12:12;94542.25;;;6.28;54.89
9774;BME280;4926;42.670;23.316;2023-02-01T13:14:48;94547.03;;;6.31;54.61
9774;BME280;4926;42.670;23.316;2023-02-01T13:17:20;94554.97;;;6.41;54.56
9774;BME280;4926;42.670;23.316;2023-02-01T13:19:53;94546.78;;;6.38;54.30
9774;BME280;4926;42.670;23.316;2023-02-01T13:22:25;94553.63;;;6.29;54.15
9774;BME280;4926;42.670;23.316;2023-02-01T13:24:56;94546.75;;;6.28;53.98
9774;BME280;4926;42.670;23.316;2023-02-01T13:27:26;94546.78;;;6.38;53.70
9774;BME280;4926;42.670;23.316;2023-02-01T13:29:59;94543.84;;;6.29;53.84
9774;BME280;4926;42.670;23.316;2023-02-01T13:38:44;94552.59;;;6.35;53.28
9774;BME280;4926;42.670;23.316;2023-02-01T13:41:25;94537.75;;;6.34;52.95
9774;BME280;4926;42.670;23.316;2023-02-01T13:44:01;94539.59;;;6.33;52.62
9774;BME280;4926;42.670;23.316;2023-02-01T13:46:39;94546.75;;;6.33;52.98
9774;BME280;4926;42.670;23.316;2023-02-01T13:49:15;94552.06;;;6.33;52.87
9774;BME280;4926;42.670;23.316;2023-02-01T13:51:46;94534.56;;;6.27;53.21
9774;BME280;4926;42.670;23.316;2023-02-01T13:54:26;94544.66;;;6.40;53.26
9774;BME280;4926;42.670;23.316;2023-02-01T13:56:58;94551.28;;;6.47;52.53